Bei Facebook empfehlenBei Twitter postenGoogle plusPinterest

Das Wetter im Erzgebirge am 09.09.2015

Wetter und Klima am 09.09.2015 Holzhau im Erzgebirge (630m ü.NN)
Letzte gemessene Temperatur und Uhrzeit der Messung23:45:00 Uhr3.80 °C
Temperatur (Maximum / Höchstwert) und Uhrzeit der Messung15:30:00 Uhr15.60 °C
Temperatur (Minimum / Tiefstwert) und Uhrzeit der Messung23:45:003.80 °C
Errechneter Absolutwert der Temperaturschwankungen zwischen Tmin und Tmax des Tages11.80 K
Errechnete Tagesmitteltemperatur9.82292 °C
Gesamt - Niederschlag des Tages (in flüssiger Form)0.00 Liter / m²
Luftdruck (Maximum / Höchstwert) und Zeitpunkt der Messung23:45:00 Uhr1020.60 hPa
Luftdruck (Minimum / Tiefstwert) und Zeitpunkt der Messung05:15:00 Uhr1017.80 hPa
Errechneter Absolutwert der Luftdruckschwankungen des Tages2.80 hPa
Höchste gemessene Windgeschwindigkeit und Uhrzeit der Messung11:15:00 Uhr19.08 km/h
Errechnete Windhäufigkeit in Relation zu den Messwerten des Tages12.50000 %
Niedrigste Windkühle (Windchill) und Zeitpunkt der Messung23:45:00 Uhr3.80 °C
Taupunkt (Maximum / Höchstwert) und Uhrzeit der Messung09:30:00 Uhr11.00 °C
Taupunkt (Minimum / Tiefstwert) und Uhrzeit der Messung23:45:002.00 °C
Anzahl der automatisch eingelesenen Messwerte 96

Detaillierte Wetter- und Klima- Messwerte für den 09.09.2015 in Holzhau im Erzgebirge (630m ü.NN)
ZeitTemperaturLuftdruckRel. LuftfeuchteWindWindrichtungWindchillTaupunktNiederschlag l/m²
23:45:003.80 °C1020.60 hPa88.00 %2.00 °C 
23:30:004.10 °C1020.50 hPa88.00 %2.30 °C 
23:15:004.40 °C1020.50 hPa88.00 %2.60 °C 
23:00:004.60 °C1020.40 hPa88.00 %2.80 °C 
22:45:004.90 °C1020.50 hPa87.00 %2.90 °C 
22:30:005.20 °C1020.50 hPa87.00 %3.20 °C 
22:15:005.30 °C1020.50 hPa86.00 %5.04 km/hO4.40 °C3.20 °C 
22:00:005.60 °C1020.60 hPa86.00 %3.40 °C 
21:45:005.80 °C1020.60 hPa85.00 %3.50 °C 
21:30:005.90 °C1020.60 hPa84.00 %3.40 °C 
21:15:006.10 °C1020.60 hPa83.00 %3.40 °C 
21:00:006.60 °C1020.50 hPa83.00 %3.90 °C 
20:45:006.90 °C1020.50 hPa82.00 %4.00 °C 
20:30:007.40 °C1020.50 hPa80.00 %4.20 °C 
20:15:007.90 °C1020.50 hPa79.00 %4.50 °C 
20:00:008.90 °C1020.30 hPa77.00 %5.10 °C 
19:45:009.90 °C1020.20 hPa76.00 %5.90 °C 
19:30:0010.50 °C1020.10 hPa74.00 %6.10 °C 
19:15:0011.40 °C1020.10 hPa71.00 %6.30 °C 
19:00:0012.30 °C1020.10 hPa69.00 %6.80 °C 
18:45:0012.90 °C1020.00 hPa68.00 %7.10 °C 
18:30:0013.30 °C1019.80 hPa66.00 %7.10 °C 
18:15:0013.80 °C1020.00 hPa65.00 %6.84 km/hOSO13.70 °C7.30 °C 
18:00:0014.10 °C1020.00 hPa65.00 %6.12 km/hNNW14.20 °C7.60 °C 
17:45:0014.10 °C1019.90 hPa64.00 %7.40 °C 
17:30:0013.90 °C1019.80 hPa62.00 %6.70 °C 
17:15:0015.00 °C1019.80 hPa62.00 %6.84 km/hSO15.10 °C7.80 °C 
17:00:0014.90 °C1019.80 hPa65.00 %8.40 °C 
16:45:0014.90 °C1019.80 hPa65.00 %1.08 km/hNNO14.90 °C8.40 °C 
16:30:0014.80 °C1019.80 hPa67.00 %8.70 °C 
16:15:0013.90 °C1020.10 hPa67.00 %7.90 °C 
16:00:0015.50 °C1020.20 hPa66.00 %7.92 km/hSO15.50 °C9.20 °C 
15:45:0014.20 °C1020.10 hPa66.00 %7.90 °C 
15:30:0015.60 °C1020.30 hPa65.00 %6.12 km/hOSO15.90 °C9.10 °C 
15:15:0015.20 °C1020.10 hPa67.00 %9.10 °C 
15:00:0014.50 °C1020.20 hPa70.00 %9.10 °C 
14:45:0013.30 °C1020.20 hPa70.00 %8.00 °C 
14:30:0014.30 °C1020.50 hPa68.00 %8.50 °C 
14:15:0015.40 °C1020.00 hPa71.00 %10.20 °C 
14:00:0014.80 °C1020.20 hPa73.00 %10.00 °C 
13:45:0013.60 °C1020.20 hPa78.00 %9.80 °C 
13:30:0012.50 °C1020.20 hPa77.00 %8.60 °C 
13:15:0012.60 °C1020.40 hPa78.00 %8.90 °C 
13:00:0012.30 °C1020.20 hPa77.00 %8.40 °C 
12:45:0012.40 °C1020.10 hPa77.00 %8.50 °C 
12:30:0012.50 °C1020.00 hPa77.00 %8.60 °C 
12:15:0012.40 °C1020.00 hPa77.00 %8.50 °C 
12:00:0013.00 °C1019.80 hPa77.00 %9.10 °C 
11:45:0012.60 °C1019.80 hPa79.00 %4.68 km/hO12.60 °C9.10 °C 
11:30:0012.60 °C1019.70 hPa79.00 %9.10 °C 
11:15:0012.10 °C1019.70 hPa81.00 %19.08 km/hSSO10.10 °C8.90 °C 
11:00:0012.30 °C1019.70 hPa83.00 %3.60 km/hO12.30 °C9.50 °C 
10:45:0012.40 °C1019.50 hPa84.00 %1.80 km/hSO12.40 °C9.80 °C 
10:30:0012.30 °C1019.50 hPa85.00 %9.90 °C 
10:15:0012.10 °C1019.30 hPa88.00 %10.20 °C 
10:00:0011.50 °C1019.30 hPa89.00 %9.80 °C 
09:45:0011.50 °C1019.30 hPa90.00 %10.08 km/hONO10.40 °C9.90 °C 
09:30:0012.30 °C1019.20 hPa92.00 %11.00 °C 
09:15:0011.20 °C1019.20 hPa93.00 %10.10 °C 
09:00:0010.10 °C1018.90 hPa94.00 %9.20 °C 
08:45:008.90 °C1018.90 hPa94.00 %8.00 °C 
08:30:007.80 °C1018.80 hPa93.00 %6.70 °C 
08:15:006.90 °C1018.60 hPa93.00 %5.80 °C 
08:00:006.60 °C1018.40 hPa93.00 %5.60 °C 
07:45:006.50 °C1018.30 hPa93.00 %5.50 °C 
07:30:006.50 °C1018.00 hPa93.00 %5.50 °C 
07:15:006.80 °C1018.20 hPa93.00 %5.70 °C 
07:00:006.80 °C1018.50 hPa93.00 %5.70 °C 
06:45:006.40 °C1018.50 hPa93.00 %5.40 °C 
06:30:006.10 °C1018.30 hPa92.00 %4.90 °C 
06:15:005.90 °C1018.00 hPa92.00 %4.70 °C 
06:00:005.80 °C1017.90 hPa92.00 %4.60 °C 
05:45:005.90 °C1018.00 hPa91.00 %4.50 °C 
05:30:006.50 °C1017.90 hPa92.00 %5.30 °C 
05:15:007.20 °C1017.80 hPa92.00 %6.00 °C 
05:00:007.60 °C1018.10 hPa92.00 %6.40 °C 
04:45:007.90 °C1017.90 hPa92.00 %6.70 °C 
04:30:007.90 °C1017.90 hPa92.00 %6.70 °C 
04:15:007.80 °C1018.00 hPa92.00 %6.60 °C 
04:00:007.60 °C1018.10 hPa92.00 %6.40 °C 
03:45:007.80 °C1017.80 hPa91.00 %6.40 °C 
03:30:007.90 °C1018.10 hPa91.00 %6.50 °C 
03:15:008.10 °C1018.10 hPa91.00 %6.70 °C 
03:00:008.10 °C1018.10 hPa91.00 %6.70 °C 
02:45:008.40 °C1018.00 hPa91.00 %7.00 °C 
02:30:008.50 °C1017.90 hPa91.00 %7.10 °C 
02:15:008.60 °C1018.30 hPa91.00 %7.20 °C 
02:00:008.50 °C1018.30 hPa91.00 %7.10 °C 
01:45:008.40 °C1018.30 hPa91.00 %7.00 °C 
01:30:008.40 °C1018.30 hPa90.00 %6.90 °C 
01:15:008.40 °C1018.40 hPa90.00 %6.90 °C 
01:00:008.40 °C1018.50 hPa90.00 %6.90 °C 
00:45:008.40 °C1018.50 hPa90.00 %6.90 °C 
00:30:008.40 °C1018.60 hPa89.00 %6.70 °C 
00:15:008.50 °C1018.60 hPa89.00 %6.80 °C 
00:00:008.60 °C1018.70 hPa89.00 %6.90 °C 

Permanenter Link zu dieser Seite: Wetter im Erzgebirge am 09.09.2015
Performance-Info: Die Erstellung der Seite / Statistik(en) / Tabelle(n) erforderte 5 Datenbankserver-Abfrage(n) und dauerte 100 Millisekunden. (Dieser Messwert ist von der Gesamt-Auslastung des Servers abhängig.)
Erzgebirge - Wetter | Erzgebirge - Wetter (Mobilgeräte) | Komplette Klimadatenbank